Time;durP1;ratioP1;P1;durP2;ratioP2;P2;SDS_P1;SDS_P2;PMS_P1;PMS_P2;Temp;Humidity;BMP_temperature;BMP_pressure;BME280_temperature;BME280_humidity;BME280_pressure;Samples;Min_cycle;Max_cycle;Signal;HPM_P1;HPM_P2
2021/08/09 02:39:32;;;;;;;12.45;4.93;;;;;;;18.04;50.87;99869.38;6306567;22;20400;-82
2021/08/09 02:42:49;;;;;;;19.27;5.47;;;;;;;18.23;50.89;99868.31;6204008;22;20019;-84
2021/08/09 02:45:10;;;;;;;13.20;5.15;;;;;;;18.20;50.66;99854.13;6171998;23;20122;-80
2021/08/09 02:47:55;;;;;;;11.50;5.22;;;;;;;18.24;50.31;99840.25;6141571;23;20390;-83
2021/08/09 02:54:24;;;;;;;12.60;6.47;;;;;;;18.43;50.04;99859.00;6173144;23;20048;-80
2021/08/09 02:58:07;;;;;;;;;;;;;;;;;;;;;
2021/08/09 03:04:45;;;;;;;17.90;7.38;;;;;;;18.22;51.18;99861.22;6190397;23;20016;-81
2021/08/09 03:07:47;;;;;;;;;;;;;;;;;;;;;
2021/08/09 03:10:20;;;;;;;13.43;6.13;;;;;;;18.43;51.83;99875.22;6195282;23;20055;-80
2021/08/09 03:13:19;;;;;;;19.52;6.65;;;;;;;18.61;51.42;99883.25;6146348;23;20451;-82
2021/08/09 03:15:48;;;;;;;14.18;6.85;;;;;;;18.55;51.51;99868.53;6228621;22;20022;-79
2021/08/09 03:18:20;;;;;;;12.52;7.05;;;;;;;18.85;51.24;99890.72;6178490;22;20027;-82
2021/08/09 03:21:08;;;;;;;19.08;7.13;;;;;;;18.62;51.19;99849.78;6203698;22;20022;-80
2021/08/09 03:23:59;;;;;;;20.17;7.15;;;;;;;18.65;51.52;99860.25;6253079;22;20023;-82
2021/08/09 03:26:36;;;;;;;16.52;6.82;;;;;;;18.87;51.49;99872.41;6228906;22;20015;-81
2021/08/09 03:29:05;;;;;;;19.30;7.53;;;;;;;19.08;51.55;99904.50;6215609;23;20020;-78
2021/08/09 03:31:31;;;;;;;15.32;7.97;;;;;;;19.05;52.04;99902.97;6166043;23;20028;-78
2021/08/09 03:33:57;;;;;;;16.65;8.00;;;;;;;18.93;51.91;99890.75;6116847;23;20066;-78
2021/08/09 03:36:28;;;;;;;18.63;8.25;;;;;;;18.90;51.77;99872.09;6122894;23;20451;-79
2021/08/09 03:38:55;;;;;;;18.80;8.00;;;;;;;19.09;52.12;99909.75;6111326;23;20068;-78
2021/08/09 03:41:27;;;;;;;18.80;9.02;;;;;;;19.03;51.46;99874.34;6136601;23;20084;-79
2021/08/09 03:43:55;;;;;;;18.88;9.05;;;;;;;19.12;52.19;99895.88;6185306;23;20055;-78
2021/08/09 03:46:23;;;;;;;13.60;8.88;;;;;;;18.97;52.30;99877.72;6112384;23;20012;-79
2021/08/09 03:48:50;;;;;;;19.00;8.95;;;;;;;19.11;52.20;99891.47;6136139;23;20021;-79
2021/08/09 03:51:16;;;;;;;14.43;8.75;;;;;;;19.17;52.45;99892.69;6180108;23;20017;-78
2021/08/09 03:53:44;;;;;;;22.60;9.57;;;;;;;19.26;52.09;99880.88;6105930;23;20024;-77
2021/08/09 03:56:10;;;;;;;18.80;9.82;;;;;;;19.42;51.36;99871.91;6083173;23;20017;-78
2021/08/09 03:58:37;;;;;;;17.38;10.10;;;;;;;19.56;51.91;99901.09;6048371;23;20029;-78
2021/08/09 04:01:07;;;;;;;15.82;9.13;;;;;;;19.51;51.95;99880.91;6077852;23;20040;-77
2021/08/09 04:03:35;;;;;;;24.27;9.77;;;;;;;19.73;51.44;99891.13;6125972;23;20017;-80
2021/08/09 04:06:03;;;;;;;20.55;9.77;;;;;;;19.89;51.33;99898.41;6101572;23;20050;-79
2021/08/09 04:08:36;;;;;;;20.80;9.43;;;;;;;20.13;51.10;99925.56;6077862;23;20104;-79
2021/08/09 04:11:05;;;;;;;23.85;10.88;;;;;;;20.09;50.64;99909.81;6077781;23;20526;-80
2021/08/09 04:13:46;;;;;;;18.05;9.77;;;;;;;20.01;50.74;99878.09;6059842;23;20021;-80
2021/08/09 04:16:26;;;;;;;22.05;10.50;;;;;;;19.91;50.97;99888.25;6067400;23;20025;-80
2021/08/09 04:18:57;;;;;;;23.20;10.80;;;;;;;20.01;50.73;99883.50;6068009;23;20022;-80
2021/08/09 04:21:23;;;;;;;16.55;9.15;;;;;;;20.12;51.10;99894.03;6043000;23;20039;-79
2021/08/09 04:23:53;;;;;;;19.23;9.43;;;;;;;20.12;51.21;99907.59;6066949;23;20058;-80
2021/08/09 04:27:35;;;;;;;;;;;;;;;;;;;;;
2021/08/09 04:30:50;;;;;;;13.57;7.60;;;;;;;20.41;50.62;99902.63;6033763;23;20030;-82
2021/08/09 04:37:23;;;;;;;;;;;;;;;;;;;;;
2021/08/09 04:40:06;;;;;;;13.93;8.10;;;;;;;21.10;49.08;99923.69;6116999;23;20503;-80
2021/08/09 04:42:35;;;;;;;16.38;8.48;;;;;;;21.23;49.03;99922.25;6099680;23;20434;-78
2021/08/09 04:45:05;;;;;;;26.45;8.65;;;;;;;21.32;48.74;99921.19;6125482;23;20021;-80
2021/08/09 04:47:54;;;;;;;20.23;8.27;;;;;;;21.37;48.71;99897.06;6125694;23;20056;-81
2021/08/09 04:50:32;;;;;;;29.58;9.13;;;;;;;21.51;47.95;99888.16;6108419;23;20026;-83
2021/08/09 04:53:00;;;;;;;19.35;8.13;;;;;;;21.93;48.01;99924.91;6090766;23;20026;-81
2021/08/09 04:55:35;;;;;;;28.63;9.38;;;;;;;22.06;47.30;99907.97;6090347;23;20066;-80
2021/08/09 04:58:38;;;;;;;21.90;9.40;;;;;;;22.22;46.79;99901.53;6091846;23;20018;-80
2021/08/09 05:01:36;;;;;;;18.00;10.10;;;;;;;22.33;46.39;99895.66;6102826;23;20026;-82
2021/08/09 05:04:42;;;;;;;17.33;9.90;;;;;;;22.27;46.87;99904.59;6095738;23;20089;-82
2021/08/09 05:07:12;;;;;;;18.80;9.40;;;;;;;22.57;46.60;99920.94;6070838;23;20160;-82
2021/08/09 05:09:49;;;;;;;20.75;10.13;;;;;;;22.48;46.66;99909.28;6067224;23;20026;-82
2021/08/09 05:12:29;;;;;;;21.20;10.18;;;;;;;22.73;46.34;99904.44;6090662;23;20076;-82
2021/08/09 05:15:02;;;;;;;22.42;10.77;;;;;;;22.60;46.04;99893.31;6090582;23;20014;-79
2021/08/09 05:17:32;;;;;;;17.17;9.95;;;;;;;23.12;45.95;99936.88;6091296;23;20069;-80
2021/08/09 05:20:06;;;;;;;21.17;12.65;;;;;;;23.05;45.71;99913.28;6099181;23;20376;-81
2021/08/09 05:22:37;;;;;;;24.17;12.75;;;;;;;23.17;45.63;99889.94;6098550;23;20026;-80
2021/08/09 05:25:14;;;;;;;21.83;13.38;;;;;;;23.43;44.83;99893.00;6121656;23;20035;-83
2021/08/09 05:28:17;;;;;;;24.42;13.23;;;;;;;23.61;44.48;99916.25;6078423;23;20018;-80
2021/08/09 05:30:55;;;;;;;17.95;12.57;;;;;;;23.60;43.85;99888.13;6117388;23;20025;-80
2021/08/09 05:33:25;;;;;;;22.52;12.65;;;;;;;23.80;43.28;99895.69;6103786;23;20078;-81
2021/08/09 05:35:54;;;;;;;22.02;12.82;;;;;;;23.68;43.24;99898.94;6098739;23;20030;-79
2021/08/09 05:39:14;;;;;;;20.35;12.45;;;;;;;23.64;43.83;99913.16;6091932;23;20054;-82
2021/08/09 05:41:44;;;;;;;18.88;11.43;;;;;;;23.74;43.77;99914.56;6129017;23;20021;-78
2021/08/09 05:44:13;;;;;;;;;;;;;;;23.73;43.71;99907.41;6182637;23;20024;-79
2021/08/09 05:46:49;;;;;;;16.33;9.77;;;;;;;23.58;44.00;99879.28;6158804;23;19916;-82
2021/08/09 05:49:20;;;;;;;19.52;10.45;;;;;;;23.73;43.95;99904.69;6134058;23;20017;-81
2021/08/09 05:52:37;;;;;;;;;;;;;;;;;;;;;
2021/08/09 05:56:00;;;;;;;16.40;11.18;;;;;;;23.98;43.39;99876.97;6054612;23;20023;-80
2021/08/09 05:58:51;;;;;;;19.13;10.13;;;;;;;24.21;43.37;99896.72;6141275;23;20064;-79
2021/08/09 06:01:17;;;;;;;18.85;10.98;;;;;;;24.28;42.89;99907.69;6160760;23;20455;-79
2021/08/09 06:03:44;;;;;;;13.45;9.07;;;;;;;24.30;42.27;99881.03;6160809;23;20153;-79
2021/08/09 06:06:19;;;;;;;21.20;10.55;;;;;;;24.45;41.84;99895.47;6118658;23;20016;-80
2021/08/09 06:08:46;;;;;;;14.63;9.70;;;;;;;24.44;42.03;99898.38;6191557;23;20021;-79
2021/08/09 06:11:13;;;;;;;16.75;9.90;;;;;;;24.34;42.07;99889.69;6217138;23;20363;-79
2021/08/09 06:13:39;;;;;;;18.23;9.43;;;;;;;24.46;42.02;99888.94;6216783;23;20024;-80
2021/08/09 06:16:05;;;;;;;14.68;9.30;;;;;;;24.57;41.71;99889.44;6216973;23;20074;-79
2021/08/09 06:18:33;;;;;;;16.38;10.23;;;;;;;24.66;41.14;99901.91;6242225;23;20050;-79
2021/08/09 06:21:00;;;;;;;18.23;9.97;;;;;;;24.66;41.39;99893.69;6167650;23;20047;-81
2021/08/09 06:23:26;;;;;;;16.15;10.55;;;;;;;24.67;41.21;99893.53;6216443;23;20150;-79
2021/08/09 06:25:54;;;;;;;13.77;9.57;;;;;;;24.77;41.22;99901.34;6216120;23;20040;-78
2021/08/09 06:28:21;;;;;;;16.63;9.55;;;;;;;24.76;41.08;99891.44;6192105;23;20017;-78
2021/08/09 06:30:48;;;;;;;16.88;10.57;;;;;;;24.86;40.88;99894.69;6215510;23;20020;-79
2021/08/09 06:33:18;;;;;;;17.48;10.00;;;;;;;25.08;40.17;99894.56;6215930;23;20017;-77
2021/08/09 06:35:44;;;;;;;14.73;9.65;;;;;;;25.13;40.04;99894.84;6215041;23;20103;-79
2021/08/09 06:38:12;;;;;;;13.93;10.10;;;;;;;25.25;40.25;99887.72;6198538;23;20016;-79
2021/08/09 06:40:41;;;;;;;18.10;9.82;;;;;;;25.35;40.32;99879.09;6215454;23;20440;-79
2021/08/09 06:43:08;;;;;;;17.48;9.48;;;;;;;25.51;39.27;99873.28;6214983;23;20091;-78
2021/08/09 06:45:40;;;;;;;51.35;29.17;;;;;;;25.63;39.09;99888.03;6239941;23;20087;-78
2021/08/09 06:48:07;;;;;;;15.02;9.07;;;;;;;25.57;38.33;99877.91;6215187;23;20051;-77
2021/08/09 06:50:33;;;;;;;15.70;9.45;;;;;;;25.81;38.23;99870.22;6189891;23;20020;-78
2021/08/09 06:52:59;;;;;;;15.05;8.80;;;;;;;26.08;37.30;99873.78;6189646;23;20060;-78
2021/08/09 06:55:26;;;;;;;12.93;8.43;;;;;;;26.11;36.81;99862.41;6214763;23;20475;-79
2021/08/09 06:57:52;;;;;;;12.45;9.05;;;;;;;26.24;35.59;99867.88;6165431;23;20024;-80
2021/08/09 07:00:18;;;;;;;11.57;7.53;;;;;;;26.29;34.68;99842.56;6165667;23;20020;-81
2021/08/09 07:02:44;;;;;;;13.45;7.97;;;;;;;26.31;34.51;99871.47;6218699;23;20660;-78
2021/08/09 07:05:11;;;;;;;11.05;7.72;;;;;;;26.44;35.05;99867.00;6219195;23;20452;-80
2021/08/09 07:07:42;;;;;;;10.27;7.63;;;;;;;26.33;35.01;99850.19;6168333;23;20448;-80
2021/08/09 07:10:09;;;;;;;10.27;6.63;;;;;;;26.59;33.45;99859.41;6217793;23;20474;-79
2021/08/09 07:12:35;;;;;;;8.80;6.35;;;;;;;26.54;32.89;99867.44;6167086;23;20038;-80
2021/08/09 07:15:01;;;;;;;10.30;6.65;;;;;;;26.47;33.04;99845.53;6165703;23;20127;-80
2021/08/09 07:17:27;;;;;;;17.95;8.00;;;;;;;26.78;32.50;99850.31;6190323;23;20017;-79
2021/08/09 07:19:54;;;;;;;13.10;7.88;;;;;;;26.82;32.48;99848.00;6165575;23;20024;-78
2021/08/09 07:22:20;;;;;;;12.57;6.72;;;;;;;27.14;32.30;99850.84;6214864;23;20013;-77
2021/08/09 07:24:46;;;;;;;9.63;6.53;;;;;;;27.26;31.59;99847.16;6214763;23;20055;-78
2021/08/09 07:27:12;;;;;;;16.60;6.95;;;;;;;27.48;30.85;99830.38;6189926;23;20440;-77
2021/08/09 07:29:39;;;;;;;9.77;5.97;;;;;;;27.69;29.86;99841.00;6214842;23;20020;-79
2021/08/09 07:32:06;;;;;;;7.32;5.07;;;;;;;27.68;28.65;99835.72;6214818;23;20016;-80
2021/08/09 07:34:32;;;;;;;8.70;5.88;;;;;;;27.53;28.64;99838.78;6164885;23;20039;-78
2021/08/09 07:36:58;;;;;;;7.88;6.07;;;;;;;27.75;29.03;99829.13;6214342;23;20058;-80
2021/08/09 07:39:24;;;;;;;7.80;5.85;;;;;;;28.08;28.67;99819.78;6187582;23;20048;-80
2021/08/09 07:41:51;;;;;;;14.07;6.07;;;;;;;28.25;27.43;99831.91;6163899;23;20161;-83
2021/08/09 07:44:16;;;;;;;11.57;6.57;;;;;;;28.05;27.54;99814.75;6212945;23;20055;-83
2021/08/09 07:46:43;;;;;;;9.30;5.80;;;;;;;28.05;27.23;99837.56;6163718;23;20143;-79
2021/08/09 07:49:10;;;;;;;30.67;22.05;;;;;;;28.03;27.63;99834.22;6214105;23;20060;-78
2021/08/09 07:51:36;;;;;;;10.80;6.43;;;;;;;28.14;28.43;99821.66;6214444;23;20024;-79
2021/08/09 07:54:02;;;;;;;8.52;5.78;;;;;;;28.46;28.50;99832.56;6139925;23;20167;-82
2021/08/09 07:56:28;;;;;;;9.65;6.32;;;;;;;28.23;27.61;99814.78;6214267;23;20444;-79
2021/08/09 07:58:54;;;;;;;8.43;6.00;;;;;;;27.82;27.89;99813.44;6190507;23;20023;-80
2021/08/09 08:01:20;;;;;;;12.15;6.90;;;;;;;28.06;27.48;99794.47;6168556;23;20344;-81
2021/08/09 08:03:47;;;;;;;5.90;5.03;;;;;;;28.12;26.83;99840.25;6165072;23;20440;-79
2021/08/09 08:06:30;;;;;;;7.35;4.90;;;;;;;27.94;27.29;99807.22;6238659;23;20479;-81
2021/08/09 08:09:17;;;;;;;7.63;5.30;;;;;;;28.17;27.60;99796.47;6170033;23;20020;-81
2021/08/09 08:11:49;;;;;;;7.28;5.20;;;;;;;28.19;26.16;99777.81;6114199;23;20363;-81
2021/08/09 08:14:20;;;;;;;6.78;5.05;;;;;;;28.38;25.53;99797.13;6163162;23;20028;-80
2021/08/09 08:16:50;;;;;;;6.28;4.53;;;;;;;28.58;25.44;99791.38;6130322;23;20083;-80
2021/08/09 08:19:21;;;;;;;6.15;4.47;;;;;;;28.78;25.34;99784.59;6155896;23;20021;-80
2021/08/09 08:21:48;;;;;;;5.93;4.45;;;;;;;28.92;24.72;99782.47;6155140;23;20111;-81
2021/08/09 08:24:15;;;;;;;6.97;4.20;;;;;;;29.14;24.15;99802.13;6130862;23;20160;-80
2021/08/09 08:26:43;;;;;;;14.38;4.50;;;;;;;29.33;24.67;99788.31;6130435;23;20025;-79
2021/08/09 08:29:33;;;;;;;6.28;4.07;;;;;;;29.35;24.66;99809.03;6106102;23;20117;-85
2021/08/09 08:32:02;;;;;;;6.05;3.85;;;;;;;29.10;24.45;99795.41;6130096;23;20464;-80
2021/08/09 08:34:29;;;;;;;3.92;3.05;;;;;;;28.70;21.94;99786.81;6130367;23;20528;-80
2021/08/09 08:37:02;;;;;;;4.78;3.70;;;;;;;29.01;22.80;99764.63;6131804;23;20104;-79
2021/08/09 08:39:29;;;;;;;7.35;3.55;;;;;;;29.40;21.77;99772.53;6100405;23;20117;-78
2021/08/09 08:41:58;;;;;;;7.55;3.30;;;;;;;29.58;21.36;99801.97;6101057;23;20013;-79
2021/08/09 08:44:25;;;;;;;10.43;3.80;;;;;;;29.21;22.63;99769.00;6061767;23;20118;-80
2021/08/09 08:46:55;;;;;;;5.80;4.40;;;;;;;29.51;23.34;99796.50;6038540;23;20023;-79
2021/08/09 08:49:23;;;;;;;7.72;4.45;;;;;;;29.56;23.42;99765.50;6062737;23;20034;-78
2021/08/09 08:51:56;;;;;;;9.32;3.97;;;;;;;30.10;23.28;99789.22;6038651;23;20047;-79
2021/08/09 08:54:27;;;;;;;7.95;3.97;;;;;;;30.01;23.26;99785.09;6068354;23;20094;-78
2021/08/09 08:56:56;;;;;;;5.40;3.80;;;;;;;30.28;23.30;99773.63;6091589;23;20026;-83
2021/08/09 08:59:51;;;;;;;5.60;4.28;;;;;;;30.35;23.38;99777.94;6060970;23;20034;-80
2021/08/09 09:02:34;;;;;;;6.20;3.70;;;;;;;30.41;23.51;99778.91;6038511;23;20023;-80
2021/08/09 09:05:07;;;;;;;7.20;4.20;;;;;;;30.44;23.43;99775.66;6086557;23;20466;-79
2021/08/09 09:07:35;;;;;;;4.78;3.58;;;;;;;30.34;22.18;99783.69;6115410;23;20030;-80
2021/08/09 09:10:21;;;;;;;;;;;;;;;30.10;22.52;99780.94;6116096;23;20106;-80
2021/08/09 09:13:11;;;;;;;10.10;3.83;;;;;;;30.41;22.76;99785.25;6086993;23;19917;-79
2021/08/09 09:15:53;;;;;;;4.43;3.88;;;;;;;30.29;22.75;99781.69;6062074;23;20015;-79
2021/08/09 09:18:22;;;;;;;7.85;4.03;;;;;;;30.60;22.54;99769.38;6112128;23;20033;-80
2021/08/09 09:20:49;;;;;;;10.07;3.65;;;;;;;31.15;22.30;99779.09;6042670;23;20030;-80
2021/08/09 09:23:23;;;;;;;9.20;4.10;;;;;;;31.58;22.28;99772.97;6095823;23;20402;-78
2021/08/09 09:25:53;;;;;;;5.63;3.78;;;;;;;31.84;22.12;99771.47;6145199;23;20049;-81
2021/08/09 09:28:40;;;;;;;;;;;;;;;;;;;;;
2021/08/09 09:31:39;;;;;;;10.00;3.88;;;;;;;31.50;21.94;99775.31;6091003;23;20481;-79
2021/08/09 09:34:13;;;;;;;7.68;4.05;;;;;;;31.24;21.78;99752.72;6146560;23;20017;-84
2021/08/09 09:36:56;;;;;;;5.57;3.80;;;;;;;31.79;21.83;99778.88;6132060;23;20029;-82
2021/08/09 09:39:40;;;;;;;4.68;3.67;;;;;;;32.41;21.69;99778.75;6183938;23;20478;-79
2021/08/09 09:42:11;;;;;;;4.82;4.03;;;;;;;32.47;21.02;99780.50;6135787;23;20506;-78
2021/08/09 09:44:38;;;;;;;7.55;3.97;;;;;;;32.58;21.41;99796.16;6160410;23;20052;-80
2021/08/09 09:47:21;;;;;;;8.52;3.80;;;;;;;32.50;20.98;99798.50;6184834;23;20110;-79
2021/08/09 09:49:49;;;;;;;5.90;4.03;;;;;;;32.38;20.99;99793.06;6159783;23;20016;-81
2021/08/09 09:52:47;;;;;;;4.70;3.53;;;;;;;32.15;21.03;99800.47;6159254;23;20021;-79
2021/08/09 09:55:15;;;;;;;6.88;3.85;;;;;;;31.60;21.26;99776.34;6189894;23;20055;-80
2021/08/09 09:57:43;;;;;;;5.38;3.60;;;;;;;31.79;21.13;99784.41;6216052;23;20050;-80
2021/08/09 10:00:12;;;;;;;;;;;;;;;32.09;20.79;99798.75;6242105;23;20102;-81
2021/08/09 10:02:50;;;;;;;4.88;3.38;;;;;;;31.84;21.03;99771.47;6217275;23;19911;-82
2021/08/09 10:05:17;;;;;;;8.85;3.92;;;;;;;32.30;20.91;99777.72;6159556;23;20021;-80
2021/08/09 10:07:47;;;;;;;5.93;3.55;;;;;;;32.52;20.65;99758.44;6211530;23;20021;-80
2021/08/09 10:10:22;;;;;;;4.80;3.63;;;;;;;32.92;19.80;99765.56;6236348;23;20521;-80
2021/08/09 10:12:55;;;;;;;4.35;3.50;;;;;;;33.04;19.56;99801.47;6209597;23;20024;-79
2021/08/09 10:15:22;;;;;;;6.85;3.65;;;;;;;33.04;20.40;99777.34;6136143;23;20382;-80
2021/08/09 10:18:10;;;;;;;5.07;3.28;;;;;;;32.65;20.21;99765.53;6137674;23;20359;-79
2021/08/09 10:21:06;;;;;;;4.60;3.15;;;;;;;32.48;19.92;99746.19;6170370;23;20020;-79
2021/08/09 10:23:43;;;;;;;3.67;3.33;;;;;;;33.02;19.62;99754.63;6186714;23;20139;-79
2021/08/09 10:26:31;;;;;;;3.72;3.40;;;;;;;33.19;19.79;99776.69;6211185;23;20020;-79
2021/08/09 10:29:12;;;;;;;4.07;3.10;;;;;;;33.47;19.34;99777.53;6214773;23;20013;-78
2021/08/09 10:31:41;;;;;;;5.07;3.55;;;;;;;33.55;19.33;99780.69;6185004;23;20031;-79
2021/08/09 10:34:10;;;;;;;3.97;2.90;;;;;;;32.96;19.27;99772.28;6211025;23;20028;-78
2021/08/09 10:37:08;;;;;;;6.07;2.88;;;;;;;33.09;18.93;99777.41;6210424;23;20413;-79
2021/08/09 10:39:46;;;;;;;6.03;2.92;;;;;;;33.56;18.67;99765.72;6241248;23;20099;-79
2021/08/09 10:42:34;;;;;;;8.85;3.30;;;;;;;34.19;18.42;99749.31;6216257;23;20016;-80
2021/08/09 10:45:03;;;;;;;8.50;3.03;;;;;;;34.78;17.80;99762.09;6191428;23;20031;-81
2021/08/09 10:47:44;;;;;;;6.95;3.15;;;;;;;34.79;17.49;99744.31;6141874;23;20016;-79
2021/08/09 10:50:41;;;;;;;10.20;3.05;;;;;;;34.31;17.82;99761.03;6215906;23;20020;-78
2021/08/09 10:53:26;;;;;;;5.13;3.30;;;;;;;33.97;18.39;99754.13;6208938;23;20471;-80
2021/08/09 10:55:53;;;;;;;7.03;2.85;;;;;;;34.51;18.41;99752.00;6240917;23;20154;-77
2021/08/09 10:58:58;;;;;;;14.95;3.58;;;;;;;35.54;17.27;99763.44;6190910;23;20098;-79
2021/08/09 11:01:26;;;;;;;4.03;3.10;;;;;;;35.30;17.40;99760.34;6190667;23;20020;-79
2021/08/09 11:04:04;;;;;;;3.92;3.13;;;;;;;35.78;16.80;99750.66;6141601;23;20102;-79
2021/08/09 11:06:53;;;;;;;5.68;2.95;;;;;;;35.92;16.08;99753.69;6216124;23;20020;-80
2021/08/09 11:09:30;;;;;;;6.90;3.15;;;;;;;35.62;16.12;99735.06;6192682;23;20059;-81
2021/08/09 11:12:17;;;;;;;6.07;3.28;;;;;;;35.54;16.74;99738.41;6244589;23;20015;-80
2021/08/09 11:15:03;;;;;;;6.30;3.33;;;;;;;35.57;16.27;99746.19;6192369;23;20020;-81
2021/08/09 11:17:44;;;;;;;4.80;2.97;;;;;;;35.79;15.63;99755.09;6242434;23;20095;-79
2021/08/09 11:20:34;;;;;;;5.60;3.25;;;;;;;35.77;16.13;99749.00;6218230;23;20044;-80
2021/08/09 11:23:12;;;;;;;8.23;3.15;;;;;;;35.94;16.23;99755.06;6217490;23;20024;-78
2021/08/09 11:25:43;;;;;;;13.27;3.75;;;;;;;36.27;15.99;99738.09;6243081;23;20296;-79
2021/08/09 11:28:22;;;;;;;6.20;3.22;;;;;;;36.35;16.11;99749.47;6244954;23;20020;-80
2021/08/09 11:30:58;;;;;;;9.07;3.40;;;;;;;36.38;16.00;99748.06;6245306;22;20012;-79
2021/08/09 11:33:43;;;;;;;6.05;3.60;;;;;;;36.54;16.04;99755.28;6269964;22;20321;-78
2021/08/09 11:36:13;;;;;;;7.40;3.30;;;;;;;36.66;15.95;99743.78;6269850;22;20016;-80
2021/08/09 11:38:49;;;;;;;5.53;3.25;;;;;;;36.22;15.04;99745.34;6269276;22;20024;-79
2021/08/09 11:41:18;;;;;;;8.15;3.33;;;;;;;36.40;15.46;99757.78;6244251;23;20020;-80
2021/08/09 11:43:44;;;;;;;6.05;3.28;;;;;;;35.81;15.38;99755.66;6246400;22;20024;-79
2021/08/09 11:46:13;;;;;;;8.23;3.13;;;;;;;36.10;14.64;99736.44;6270201;22;20026;-79
2021/08/09 11:48:40;;;;;;;5.50;3.00;;;;;;;36.39;14.77;99752.50;6243813;23;20012;-79
2021/08/09 11:51:11;;;;;;;5.38;2.85;;;;;;;36.62;14.29;99759.41;6269775;22;20016;-79
2021/08/09 11:53:41;;;;;;;6.13;2.90;;;;;;;36.36;14.73;99756.69;6269816;22;20069;-79
2021/08/09 11:56:08;;;;;;;6.28;2.95;;;;;;;36.22;14.49;99745.34;6243874;22;20351;-80
2021/08/09 11:58:35;;;;;;;4.45;2.67;;;;;;;35.63;14.84;99754.28;6269661;22;20016;-80
2021/08/09 12:01:01;;;;;;;6.63;2.83;;;;;;;35.59;14.94;99746.78;6244283;23;20338;-79
2021/08/09 12:03:27;;;;;;;8.32;2.90;;;;;;;35.01;14.79;99741.38;6269375;22;20047;-80
2021/08/09 12:06:18;;;;;;;10.48;3.97;;;;;;;34.80;15.22;99763.50;6244014;23;20020;-80
2021/08/09 12:08:55;;;;;;;12.00;3.33;;;;;;;34.95;14.75;99764.66;6243915;23;20020;-81
2021/08/09 12:11:29;;;;;;;6.35;3.25;;;;;;;34.82;14.86;99749.34;6270108;22;20054;-80
2021/08/09 12:14:12;;;;;;;7.78;3.10;;;;;;;35.00;14.76;99761.94;6269988;22;20016;-80
2021/08/09 12:16:51;;;;;;;10.05;3.58;;;;;;;35.96;14.32;99758.44;6269636;22;20374;-79
2021/08/09 12:19:20;;;;;;;11.48;3.80;;;;;;;36.47;13.66;99758.34;6269583;22;20016;-80
2021/08/09 12:21:47;;;;;;;12.52;3.65;;;;;;;37.15;13.50;99752.19;6268859;22;20027;-79
2021/08/09 12:24:21;;;;;;;14.47;4.50;;;;;;;37.74;12.92;99758.75;6218944;23;20024;-80
2021/08/09 12:26:49;;;;;;;8.48;4.20;;;;;;;37.45;12.85;99758.72;6269682;22;20048;-78
2021/08/09 12:29:20;;;;;;;10.45;4.00;;;;;;;37.06;12.77;99747.53;6243407;23;20400;-79
2021/08/09 12:31:46;;;;;;;8.43;4.10;;;;;;;37.62;12.92;99749.94;6269478;22;20386;-80
2021/08/09 12:34:14;;;;;;;8.90;4.18;;;;;;;37.75;12.63;99749.25;6243815;23;20028;-79
2021/08/09 12:36:41;;;;;;;10.65;4.05;;;;;;;37.92;12.60;99746.06;6269393;22;20062;-79
2021/08/09 12:39:08;;;;;;;12.05;4.28;;;;;;;38.33;12.11;99746.47;6269276;22;20343;-79
2021/08/09 12:41:34;;;;;;;10.20;4.20;;;;;;;38.38;11.86;99735.25;6269532;22;20058;-79
2021/08/09 12:44:03;;;;;;;8.43;4.30;;;;;;;38.08;12.00;99753.16;6269535;22;20020;-79
2021/08/09 12:46:29;;;;;;;9.15;4.85;;;;;;;38.56;11.62;99746.78;6243499;23;20031;-80
2021/08/09 12:48:57;;;;;;;7.13;4.10;;;;;;;38.45;11.47;99746.09;6244010;23;20024;-79
2021/08/09 12:51:23;;;;;;;9.18;4.40;;;;;;;38.77;11.37;99748.16;6269257;22;20023;-80
2021/08/09 12:53:49;;;;;;;10.57;4.40;;;;;;;38.77;10.58;99753.75;6268807;22;20039;-80
2021/08/09 12:56:15;;;;;;;9.35;4.35;;;;;;;38.83;10.95;99735.84;6243626;22;20158;-81
2021/08/09 12:58:41;;;;;;;4.85;3.65;;;;;;;39.18;10.38;99746.81;6269384;22;20020;-80
2021/08/09 13:01:07;;;;;;;7.97;4.22;;;;;;;39.43;10.25;99745.63;6218797;23;20023;-80
2021/08/09 13:03:33;;;;;;;13.48;4.03;;;;;;;39.97;10.10;99750.56;6245214;22;20064;-80
2021/08/09 13:06:03;;;;;;;5.57;4.20;;;;;;;39.75;9.65;99742.00;6269234;22;20320;-79
2021/08/09 13:08:30;;;;;;;5.32;3.92;;;;;;;39.98;9.71;99743.00;6218843;23;20012;-80
2021/08/09 13:10:59;;;;;;;5.60;3.80;;;;;;;38.99;9.83;99739.25;6269293;22;20023;-80
2021/08/09 13:13:29;;;;;;;5.13;3.35;;;;;;;37.95;10.40;99737.09;6219128;23;20059;-80
2021/08/09 13:15:55;;;;;;;8.02;4.25;;;;;;;37.40;11.11;99737.25;6243805;23;20106;-79
2021/08/09 13:18:24;;;;;;;7.72;3.88;;;;;;;37.72;10.84;99737.84;6269105;22;20054;-82
2021/08/09 13:20:52;;;;;;;6.45;4.40;;;;;;;37.21;11.26;99739.06;6269233;22;20073;-83
2021/08/09 13:23:18;;;;;;;9.52;4.53;;;;;;;36.22;11.76;99728.63;6244558;23;20402;-82
2021/08/09 13:25:44;;;;;;;10.50;4.32;;;;;;;36.68;11.50;99736.00;6246350;22;20020;-81
2021/08/09 13:28:10;;;;;;;8.90;4.30;;;;;;;37.22;11.25;99739.91;6198135;23;20015;-81
2021/08/09 13:30:37;;;;;;;12.18;4.82;;;;;;;37.98;10.81;99724.50;6251091;22;20027;-82
2021/08/09 13:33:03;;;;;;;5.57;4.40;;;;;;;38.53;10.50;99728.66;6252586;23;20024;-81
2021/08/09 13:35:29;;;;;;;9.40;4.53;;;;;;;38.66;10.26;99741.06;6221436;23;20039;-84
2021/08/09 13:37:55;;;;;;;10.00;4.30;;;;;;;38.63;10.35;99724.91;6250833;22;20024;-89
2021/08/09 13:45:08;;;;;;;7.82;4.47;;;;;;;36.50;11.42;99722.72;6259893;22;20016;-82
2021/08/09 13:48:49;;;;;;;;;;;;;;;;;;;;;
2021/08/09 13:52:16;;;;;;;;;;;;;;;;;;;;;
2021/08/09 13:55:38;;;;;;;6.57;3.97;;;;;;;33.46;12.86;99707.44;6225287;23;20017;-84
2021/08/09 13:58:05;;;;;;;7.03;4.28;;;;;;;33.53;12.83;99696.97;6082628;23;20022;-82
2021/08/09 14:00:59;;;;;;;7.47;4.90;;;;;;;34.36;12.62;99690.00;6207197;23;20115;-81
2021/08/09 14:03:47;;;;;;;14.77;4.70;;;;;;;35.17;12.11;99706.97;6199559;23;20402;-79
2021/08/09 14:15:10;;;;;;;9.10;5.13;;;;;;;35.82;11.75;99707.25;5954423;24;20020;-81
2021/08/09 14:18:45;;;;;;;11.07;4.80;;;;;;;36.23;12.07;99724.72;5994018;23;20020;-85
2021/08/09 14:21:38;;;;;;;7.65;5.13;;;;;;;36.71;11.74;99727.06;6195065;23;20075;-82
2021/08/09 14:24:16;;;;;;;12.95;5.13;;;;;;;36.23;11.99;99707.19;6218413;23;20443;-80
2021/08/09 14:26:43;;;;;;;9.93;5.30;;;;;;;35.59;12.13;99702.28;6243985;23;20020;-84
2021/08/09 14:29:10;;;;;;;11.32;5.13;;;;;;;35.16;12.38;99733.06;6219529;23;20016;-84
2021/08/09 14:31:41;;;;;;;10.88;5.68;;;;;;;34.84;12.53;99719.38;6194325;23;20016;-84
2021/08/09 14:34:29;;;;;;;;;;;;;;;;;;;;;
2021/08/09 14:37:01;;;;;;;10.65;5.28;;;;;;;32.98;13.83;99736.84;6170360;23;20443;-82
2021/08/09 14:39:55;;;;;;;;;;;;;;;31.93;14.67;99735.97;6160925;23;20055;-82
2021/08/09 14:42:25;;;;;;;12.02;6.65;;;;;;;31.22;15.39;99710.72;6191220;23;20323;-82
2021/08/09 14:45:05;;;;;;;11.02;6.13;;;;;;;31.12;15.65;99730.69;6101871;23;20028;-82
2021/08/09 14:47:41;;;;;;;10.80;7.55;;;;;;;30.72;16.16;99717.75;6082720;23;20029;-82
2021/08/09 14:50:16;;;;;;;14.05;5.90;;;;;;;30.53;16.58;99727.28;6072711;23;20066;-82
2021/08/09 14:52:46;;;;;;;10.20;6.40;;;;;;;30.20;16.85;99706.75;6073883;23;20048;-81
2021/08/09 14:55:14;;;;;;;17.63;6.13;;;;;;;29.92;17.47;99714.91;6050099;23;20457;-81
2021/08/09 14:57:41;;;;;;;16.33;5.88;;;;;;;29.56;17.55;99721.44;6049073;23;20056;-80
2021/08/09 15:00:41;;;;;;;;;;;;;;;;;;;;;
2021/08/09 15:03:39;;;;;;;12.00;5.88;;;;;;;29.17;18.44;99732.84;6067069;23;20476;-78
2021/08/09 15:06:29;;;;;;;15.55;6.70;;;;;;;29.16;18.68;99719.31;6001858;23;20014;-84
2021/08/09 15:09:04;;;;;;;14.82;6.57;;;;;;;29.39;18.46;99732.31;6027139;23;20109;-82
2021/08/09 15:11:31;;;;;;;11.05;6.32;;;;;;;29.69;18.22;99754.31;6068312;23;20113;-80
2021/08/09 15:14:01;;;;;;;13.05;7.07;;;;;;;29.55;18.53;99745.38;6020384;23;20029;-81
2021/08/09 15:20:16;;;;;;;13.65;7.03;;;;;;;28.63;19.22;99729.13;6086284;23;20026;-83
2021/08/09 15:27:26;;;;;;;13.20;6.78;;;;;;;28.29;19.54;99727.81;6149681;23;20072;-84
2021/08/09 15:30:43;;;;;;;;;;;;;;;;;;;;;
2021/08/09 15:33:55;;;;;;;;;;;;;;;;;;;;;
2021/08/09 15:41:11;;;;;;;12.60;6.80;;;;;;;27.23;20.90;99739.72;6136207;23;20017;-85